createdAt,value
2023-08-14T00:00:00.848Z,94.21
2023-08-14T00:05:00.742Z,94.21
2023-08-14T00:10:00.697Z,94.21
2023-08-14T00:15:00.768Z,94.21
2023-08-14T00:20:00.752Z,95.26
2023-08-14T00:25:00.744Z,95.26
2023-08-14T00:30:00.720Z,95.26
2023-08-14T00:35:00.772Z,95.26
2023-08-14T00:40:00.729Z,95.26
2023-08-14T00:45:00.714Z,95.26
2023-08-14T00:50:00.749Z,95.26
2023-08-14T00:55:00.718Z,95.26
2023-08-14T01:00:00.739Z,95.26
2023-08-14T01:05:00.724Z,95.26
2023-08-14T01:10:00.721Z,96.31
2023-08-14T01:15:00.698Z,96.31
2023-08-14T01:20:00.706Z,96.31
2023-08-14T01:25:00.777Z,96.31
2023-08-14T01:30:00.883Z,96.31
2023-08-14T01:35:00.717Z,96.31
2023-08-14T01:40:00.697Z,96.31
2023-08-14T01:45:00.735Z,97.41
2023-08-14T01:50:00.751Z,96.31
2023-08-14T01:55:00.768Z,96.31
2023-08-14T02:00:00.861Z,97.35
2023-08-14T02:05:00.757Z,97.16
2023-08-14T02:10:00.732Z,97.16
2023-08-14T02:15:00.722Z,97.16
2023-08-14T02:20:00.715Z,97.16
2023-08-14T02:25:00.734Z,97.16
2023-08-14T02:30:00.781Z,97.16
2023-08-14T02:35:00.779Z,97.16
2023-08-14T02:40:00.810Z,98.3
2023-08-14T02:45:00.762Z,98.3
2023-08-14T02:50:00.760Z,98.3
2023-08-14T02:55:00.753Z,98.3
2023-08-14T03:00:00.744Z,98.59
2023-08-14T03:05:00.757Z,98.59
2023-08-14T03:10:00.740Z,98.59
2023-08-14T03:15:00.876Z,99.99
2023-08-14T03:20:00.972Z,99.99
2023-08-14T03:25:00.767Z,99.99
2023-08-14T03:30:00.724Z,99.99
2023-08-14T03:35:00.724Z,99.99
2023-08-14T03:40:00.796Z,99.99
2023-08-14T03:45:00.776Z,99.99
2023-08-14T03:50:00.768Z,99.99
2023-08-14T03:55:00.839Z,99.99
2023-08-14T04:00:00.733Z,99.99
2023-08-14T04:05:00.733Z,99.99
2023-08-14T04:10:00.723Z,99.99
2023-08-14T04:15:00.754Z,99.99
2023-08-14T04:20:00.695Z,99.99
2023-08-14T04:25:00.779Z,99.99
2023-08-14T04:30:00.714Z,99.99
2023-08-14T04:35:00.747Z,99.99
2023-08-14T04:40:00.758Z,99.99
2023-08-14T04:45:00.721Z,99.99
2023-08-14T04:50:00.814Z,99.99
2023-08-14T04:55:00.746Z,99.99
2023-08-14T05:00:00.969Z,98.7
2023-08-14T05:05:01.105Z,98.7
2023-08-14T05:10:00.780Z,97.45
2023-08-14T05:15:00.795Z,97.45
2023-08-14T05:20:00.718Z,96.3
2023-08-14T05:25:00.711Z,97.1
2023-08-14T05:30:00.776Z,96.05
2023-08-14T05:35:00.782Z,96.05
2023-08-14T05:40:00.732Z,96.05
2023-08-14T05:45:00.731Z,96.05
2023-08-14T05:50:01.975Z,96.05
2023-08-14T05:55:01.224Z,94.95
2023-08-14T06:00:00.766Z,94.95
2023-08-14T06:05:00.794Z,94.95
2023-08-14T06:10:00.726Z,94.95
2023-08-14T06:15:00.759Z,93.56
2023-08-14T06:20:00.709Z,93.56
2023-08-14T06:25:00.704Z,92.48
2023-08-14T06:30:00.757Z,91.03
2023-08-14T06:35:00.734Z,88.59
2023-08-14T06:40:00.763Z,88.59
2023-08-14T06:45:00.717Z,87.5
2023-08-14T06:50:00.808Z,85.02
2023-08-14T06:55:00.721Z,83.99
2023-08-14T07:00:00.715Z,82.89
2023-08-14T07:05:00.782Z,82.75
2023-08-14T07:10:00.719Z,82.75
2023-08-14T07:15:00.731Z,80.48
2023-08-14T07:20:00.794Z,80.48
2023-08-14T07:25:00.764Z,80.18
2023-08-14T07:30:00.720Z,80.94
2023-08-14T07:35:00.721Z,79.9
2023-08-14T07:40:00.765Z,78.44
2023-08-14T07:45:00.687Z,77.41
2023-08-14T07:50:00.767Z,77.3
2023-08-14T07:55:00.723Z,76.08
2023-08-14T08:00:00.780Z,76.14
2023-08-14T08:05:00.709Z,73.89
2023-08-14T08:10:00.703Z,74.98
2023-08-14T08:15:00.742Z,73.75
2023-08-14T08:20:00.918Z,73.12
2023-08-14T08:25:00.763Z,73.09
2023-08-14T08:30:00.727Z,74.43
2023-08-14T08:35:00.759Z,73.08
2023-08-14T08:40:00.734Z,73.08
2023-08-14T08:45:00.710Z,73.2
2023-08-14T08:50:00.769Z,71.92
2023-08-14T08:55:00.706Z,70.41
2023-08-14T09:00:00.711Z,69.78
2023-08-14T09:05:00.940Z,68.5
2023-08-14T09:10:00.721Z,68.29
2023-08-14T09:15:00.720Z,67.21
2023-08-14T09:20:29.691Z,68.26
2023-08-14T09:25:01.211Z,67.18
2023-08-14T09:30:00.752Z,67.18
2023-08-14T09:35:00.794Z,67.18
2023-08-14T09:40:00.870Z,68.2
2023-08-14T09:45:00.709Z,65.61
2023-08-14T09:50:00.775Z,64.04
2023-08-14T09:55:12.152Z,63.52
2023-08-14T10:00:00.825Z,61.86
2023-08-14T10:05:00.720Z,59.74
2023-08-14T10:10:00.724Z,56.94
2023-08-14T10:15:03.612Z,57.99
2023-08-14T10:20:00.785Z,55.64
2023-08-14T10:25:00.712Z,56.81
2023-08-14T10:30:00.735Z,56.95
2023-08-14T10:35:00.744Z,57.4
2023-08-14T10:40:00.749Z,58.27
2023-08-14T10:45:00.749Z,58.35
2023-08-14T10:50:00.771Z,60.67
2023-08-14T10:55:00.794Z,60.73
2023-08-14T11:00:00.781Z,60.73
2023-08-14T11:05:00.744Z,62.2
2023-08-14T11:10:05.679Z,62.33
2023-08-14T11:15:00.811Z,64.49
2023-08-14T11:20:00.748Z,62.38
2023-08-14T11:25:00.778Z,63.96
2023-08-14T11:30:17.901Z,63.96
2023-08-14T11:35:00.724Z,65.21
2023-08-14T11:40:00.717Z,66.32
2023-08-14T11:45:00.878Z,66.32
2023-08-14T11:50:00.793Z,67.51
2023-08-14T11:55:00.979Z,66.23
2023-08-14T12:00:00.557Z,66.23
2023-08-14T12:05:00.729Z,66.23
2023-08-14T12:10:00.535Z,67.41
2023-08-14T12:15:00.594Z,68.79
2023-08-14T12:20:00.556Z,68.79
2023-08-14T12:25:00.554Z,67.38
2023-08-14T12:30:00.921Z,67.44
2023-08-14T12:35:00.584Z,66.32
2023-08-14T12:40:00.567Z,64.23
2023-08-14T12:45:00.610Z,63.19
2023-08-14T12:50:00.537Z,63.22
2023-08-14T12:55:06.590Z,61.1
2023-08-14T13:00:00.740Z,62.08
2023-08-14T13:05:00.798Z,62.05
2023-08-14T13:10:00.629Z,58.97
2023-08-14T13:15:00.591Z,60.14
2023-08-14T13:20:00.547Z,59.07
2023-08-14T13:25:00.628Z,59.36
2023-08-14T13:30:00.559Z,61.7
2023-08-14T13:35:00.537Z,59.57
2023-08-14T13:40:04.543Z,59.57
2023-08-14T13:45:19.541Z,59.57
2023-08-14T13:50:00.554Z,60.74
2023-08-14T13:55:00.545Z,59.63
2023-08-14T14:00:00.673Z,58.36
2023-08-14T14:05:00.528Z,57
2023-08-14T14:10:00.533Z,57.97
2023-08-14T14:15:00.578Z,56.84
2023-08-14T14:20:00.526Z,55.84
2023-08-14T14:25:00.608Z,54.28
2023-08-14T14:30:00.510Z,55.13
2023-08-14T14:35:00.534Z,54.71
2023-08-14T14:40:00.688Z,53.52
2023-08-14T14:45:00.630Z,53.16
2023-08-14T14:50:00.541Z,50.97
2023-08-14T14:55:01.069Z,51.09
2023-08-14T15:00:00.750Z,50.7
2023-08-14T15:05:22.089Z,50.6
2023-08-14T15:10:00.557Z,49.29
2023-08-14T15:15:00.608Z,49.29
2023-08-14T15:20:00.578Z,50.72
2023-08-14T15:25:00.564Z,47.58
2023-08-14T15:30:00.567Z,48.85
2023-08-14T15:35:00.526Z,47.71
2023-08-14T15:40:00.558Z,48.87
2023-08-14T15:45:01.615Z,51.5
2023-08-14T15:50:00.540Z,51.5
2023-08-14T15:55:00.515Z,51.36
2023-08-14T16:00:00.555Z,51.36
2023-08-14T16:05:00.553Z,50.09
2023-08-14T16:10:00.563Z,49.97
2023-08-14T16:15:01.522Z,51.14
2023-08-14T16:20:00.550Z,51.14
2023-08-14T16:25:00.556Z,51.14
2023-08-14T16:30:00.596Z,51.14
2023-08-14T16:35:00.556Z,52.45
2023-08-14T16:40:00.540Z,52.45
2023-08-14T16:45:00.537Z,53.6
2023-08-14T16:50:00.543Z,53.6
2023-08-14T16:55:00.560Z,53.6
2023-08-14T17:00:00.574Z,54.85
2023-08-14T17:05:00.620Z,54.85
2023-08-14T17:10:00.553Z,54.85
2023-08-14T17:15:00.640Z,56.17
2023-08-14T17:20:00.590Z,57.5
2023-08-14T17:25:00.591Z,58.83
2023-08-14T17:30:00.567Z,61
2023-08-14T17:35:00.550Z,59.94
2023-08-14T17:40:00.583Z,59.94
2023-08-14T17:45:00.610Z,62.61
2023-08-14T17:50:00.731Z,64.15
2023-08-14T17:55:00.567Z,65.59
2023-08-14T18:00:00.620Z,66.95
2023-08-14T18:05:00.689Z,69.15
2023-08-14T18:10:00.664Z,70.38
2023-08-14T18:15:00.623Z,70.31
2023-08-14T18:20:00.788Z,71.41
2023-08-14T18:25:01.973Z,71.41
2023-08-14T18:30:00.545Z,72.46
2023-08-14T18:35:00.548Z,72.46
2023-08-14T18:40:00.581Z,73.56
2023-08-14T18:45:00.554Z,73.56
2023-08-14T18:50:02.051Z,74.59
2023-08-14T18:55:00.581Z,74.59
2023-08-14T19:00:00.601Z,75.62
2023-08-14T19:05:00.571Z,75.62
2023-08-14T19:10:00.502Z,75.62
2023-08-14T19:15:00.546Z,76.71
2023-08-14T19:20:00.569Z,76.71
2023-08-14T19:25:00.685Z,76.71
2023-08-14T19:30:00.726Z,77.88
2023-08-14T19:35:00.549Z,77.88
2023-08-14T19:40:00.567Z,78.91
2023-08-14T19:45:00.581Z,80
2023-08-14T19:50:00.641Z,81.08
2023-08-14T19:55:00.629Z,81.08
2023-08-14T20:00:00.591Z,82.11
2023-08-14T20:05:00.528Z,82.11
2023-08-14T20:10:00.562Z,82.11
2023-08-14T20:15:00.598Z,83.75
2023-08-14T20:20:00.580Z,83.75
2023-08-14T20:25:00.612Z,83.75
2023-08-14T20:30:00.584Z,84.82
2023-08-14T20:35:00.536Z,84.82
2023-08-14T20:40:00.605Z,86.03
2023-08-14T20:45:00.557Z,86.03
2023-08-14T20:50:00.555Z,86.03
2023-08-14T20:55:00.797Z,86.03
2023-08-14T21:00:00.520Z,86.03
2023-08-14T21:05:00.807Z,87.11
2023-08-14T21:10:00.550Z,87.11
2023-08-14T21:15:00.630Z,87.11
2023-08-14T21:20:00.651Z,87.11
2023-08-14T21:25:00.521Z,87.11
2023-08-14T21:30:00.640Z,87.11
2023-08-14T21:35:00.580Z,87.11
2023-08-14T21:40:00.589Z,87.11
2023-08-14T21:45:00.554Z,87.11
2023-08-14T21:50:00.594Z,87.11
2023-08-14T21:55:00.604Z,87.11
2023-08-14T22:00:00.686Z,88.3
2023-08-14T22:05:00.571Z,88.3
2023-08-14T22:10:00.500Z,88.3
2023-08-14T22:15:00.587Z,88.3
2023-08-14T22:20:00.588Z,89.36
2023-08-14T22:25:00.618Z,88.32
2023-08-14T22:30:00.587Z,88.32
2023-08-14T22:35:00.623Z,88.32
2023-08-14T22:40:00.633Z,88.32
2023-08-14T22:45:00.615Z,88.32
2023-08-14T22:50:00.611Z,88.32
2023-08-14T22:55:00.612Z,88.32
2023-08-14T23:00:00.610Z,88.32
2023-08-14T23:05:00.573Z,87.3
2023-08-14T23:10:00.544Z,86.2
2023-08-14T23:15:00.599Z,83.77
2023-08-14T23:20:00.550Z,82.67
2023-08-14T23:25:00.546Z,80.34
2023-08-14T23:30:00.628Z,79.13
2023-08-14T23:35:00.587Z,77.54
2023-08-14T23:40:00.537Z,76.5
2023-08-14T23:45:00.671Z,76.3
2023-08-14T23:50:00.694Z,77.47
2023-08-14T23:55:00.997Z,77.47
